Polis 139 9970 — SFC7681 — position and weather

sailwx.info

Track history (hours):
 
Tides and Currents Weather Stations Pressure Air Temp Water Temp Dewpoint Dewpoint Depression Visibility Wind Speed Wind Dir Waves Ship Positions

Polis 139 9970

Last reported at 2017-Jun-23 18:28 UTC. Time now 2017-Jun-24 03:32 UTC.
Position N 59°23' E 018°20'.

Length 16 m.

Type: Law enforcement. MMSI: 265565250.

Date/timePositionNaut miles runAvg speedWind from/ knotsBaromVisibWave heightAir tempDewpointWater temp
2017-Jun-23 18:28N 59°23' E 018°20'714.9
2017-Jun-23 18:00N 59°19' E 018°10'0 0.3
2017-Jun-23 17:31N 59°19' E 018°10'1223.9
2017-Jun-23 17:00N 59°25' E 018°31'7 4.5
2017-Jun-23 15:33N 59°22' E 018°19'243.9
2017-Jun-23 15:30N 59°22' E 018°16'3 5.7
2017-Jun-23 15:00N 59°20' E 018°11'6 0.3
2017-Jun-22 18:44N 59°23' E 018°20'625.8
2017-Jun-22 18:30N 59°20' E 018°11'0 0.6
2017-Jun-22 18:00N 59°20' E 018°10'1 1.4
2017-Jun-22 17:31N 59°19' E 018°10'0 0.0
2017-Jun-22 17:00N 59°19' E 018°10'0 0.0
2017-Jun-22 16:30N 59°19' E 018°10'0 0.0
2017-Jun-22 16:00N 59°19' E 018°10'0 0.0
2017-Jun-22 15:30N 59°19' E 018°10'0 0.0
2017-Jun-22 15:00N 59°19' E 018°10'0 0.0
2017-Jun-22 14:00N 59°19' E 018°10'0 0.0
2017-Jun-22 13:30N 59°19' E 018°10'0 0.0
2017-Jun-22 13:00N 59°19' E 018°10'7 4.0
2017-Jun-22 11:21N 59°23' E 018°20'719.0
2017-Jun-22 11:00N 59°19' E 018°10'0 0.0
2017-Jun-22 10:30N 59°19' E 018°10'0 0.0
2017-Jun-22 10:00N 59°19' E 018°10'0 0.0
2017-Jun-22 09:30N 59°19' E 018°10'0 0.0
2017-Jun-22 09:00N 59°19' E 018°10'3 5.8
2017-Jun-22 08:30N 59°22' E 018°07'3 5.8
2017-Jun-22 08:00N 59°19' E 018°10'0 0.0
2017-Jun-22 07:30N 59°19' E 018°10'0 0.0
2017-Jun-22 07:00N 59°19' E 018°10'0 0.0
2017-Jun-22 06:31N 59°19' E 018°10'0 0.0
2017-Jun-22 06:00N 59°19' E 018°10'0 0.0
2017-Jun-22 05:30N 59°19' E 018°10'0 0.0
2017-Jun-22 05:01N 59°19' E 018°10'0 0.0
2017-Jun-22 04:30N 59°19' E 018°10'0 0.0
2017-Jun-22 04:00N 59°19' E 018°10'0 0.0
2017-Jun-22 03:30N 59°19' E 018°10'0 0.0
2017-Jun-22 03:00N 59°19' E 018°10'0 0.0
2017-Jun-22 02:30N 59°19' E 018°10'0 0.0
2017-Jun-22 02:00N 59°19' E 018°10'0 0.0
2017-Jun-22 01:30N 59°19' E 018°10'0 0.0
2017-Jun-22 01:00N 59°19' E 018°10'0 0.0
2017-Jun-22 00:30N 59°19' E 018°10'0 0.0
2017-Jun-22 00:00N 59°19' E 018°10'0 0.0
2017-Jun-21 23:30N 59°19' E 018°10'0 0.0
2017-Jun-21 23:00N 59°19' E 018°10'0 0.0
2017-Jun-21 22:30N 59°19' E 018°10'0 0.0
2017-Jun-21 22:00N 59°19' E 018°10'0 0.0
2017-Jun-21 21:30N 59°19' E 018°10'0 0.0
2017-Jun-21 21:00N 59°19' E 018°10'0 0.0
2017-Jun-21 20:30N 59°19' E 018°10'0 0.0
2017-Jun-21 20:01N 59°19' E 018°10'0 0.0
2017-Jun-21 19:30N 59°19' E 018°10'0 0.0
2017-Jun-21 19:00N 59°19' E 018°10'0 0.0
2017-Jun-21 18:30N 59°19' E 018°10'0 0.0
2017-Jun-21 18:00N 59°19' E 018°10'0 0.0
2017-Jun-21 17:30N 59°19' E 018°10'0 0.0
2017-Jun-21 17:00N 59°19' E 018°10'0 0.0
2017-Jun-21 16:30N 59°19' E 018°10'0 0.0
2017-Jun-21 16:00N 59°19' E 018°10'0 0.0
2017-Jun-21 15:30N 59°19' E 018°10'0 0.0
2017-Jun-21 15:00N 59°19' E 018°10'2 3.1
2017-Jun-21 14:30N 59°20' E 018°12'6 0.3
2017-Jun-20 18:02N 59°16' E 018°21'135.4
2017-Jun-20 18:00N 59°17' E 018°20'4 7.5
2017-Jun-20 17:30N 59°19' E 018°13'2 3.9
2017-Jun-20 17:01N 59°19' E 018°10'8 3.6
2017-Jun-20 14:40N 59°23' E 018°24'812.8
2017-Jun-20 14:00N 59°19' E 018°10'0 0.1
2017-Jun-20 13:30N 59°19' E 018°10'712.8
2017-Jun-20 12:58N 59°23' E 018°22'  
Track history (hours):
 
Tides and Currents Weather Stations Pressure Air Temp Water Temp Dewpoint Dewpoint Depression Visibility Wind Speed Wind Dir Waves Ship Positions

Polis 139 9970

Last reported at 2017-Jun-23 18:28 UTC. Time now 2017-Jun-24 03:32 UTC.
Position N 59°23' E 018°20'.

Length 16 m.

Type: Law enforcement. MMSI: 265565250.

Date/timePositionNaut miles runAvg speedWind from/ knotsBaromVisibWave heightAir tempDewpointWater temp
2017-Jun-23 18:28N 59°23' E 018°20'714.9
2017-Jun-23 18:00N 59°19' E 018°10'0 0.3
2017-Jun-23 17:31N 59°19' E 018°10'1223.9
2017-Jun-23 17:00N 59°25' E 018°31'7 4.5
2017-Jun-23 15:33N 59°22' E 018°19'243.9
2017-Jun-23 15:30N 59°22' E 018°16'3 5.7
2017-Jun-23 15:00N 59°20' E 018°11'6 0.3
2017-Jun-22 18:44N 59°23' E 018°20'625.8
2017-Jun-22 18:30N 59°20' E 018°11'0 0.6
2017-Jun-22 18:00N 59°20' E 018°10'1 1.4
2017-Jun-22 17:31N 59°19' E 018°10'0 0.0
2017-Jun-22 17:00N 59°19' E 018°10'0 0.0
2017-Jun-22 16:30N 59°19' E 018°10'0 0.0
2017-Jun-22 16:00N 59°19' E 018°10'0 0.0
2017-Jun-22 15:30N 59°19' E 018°10'0 0.0
2017-Jun-22 15:00N 59°19' E 018°10'0 0.0
2017-Jun-22 14:00N 59°19' E 018°10'0 0.0
2017-Jun-22 13:30N 59°19' E 018°10'0 0.0
2017-Jun-22 13:00N 59°19' E 018°10'7 4.0
2017-Jun-22 11:21N 59°23' E 018°20'719.0
2017-Jun-22 11:00N 59°19' E 018°10'0 0.0
2017-Jun-22 10:30N 59°19' E 018°10'0 0.0
2017-Jun-22 10:00N 59°19' E 018°10'0 0.0
2017-Jun-22 09:30N 59°19' E 018°10'0 0.0
2017-Jun-22 09:00N 59°19' E 018°10'3 5.8
2017-Jun-22 08:30N 59°22' E 018°07'3 5.8
2017-Jun-22 08:00N 59°19' E 018°10'0 0.0
2017-Jun-22 07:30N 59°19' E 018°10'0 0.0
2017-Jun-22 07:00N 59°19' E 018°10'0 0.0
2017-Jun-22 06:31N 59°19' E 018°10'0 0.0
2017-Jun-22 06:00N 59°19' E 018°10'0 0.0
2017-Jun-22 05:30N 59°19' E 018°10'0 0.0
2017-Jun-22 05:01N 59°19' E 018°10'0 0.0
2017-Jun-22 04:30N 59°19' E 018°10'0 0.0
2017-Jun-22 04:00N 59°19' E 018°10'0 0.0
2017-Jun-22 03:30N 59°19' E 018°10'0 0.0
2017-Jun-22 03:00N 59°19' E 018°10'0 0.0
2017-Jun-22 02:30N 59°19' E 018°10'0 0.0
2017-Jun-22 02:00N 59°19' E 018°10'0 0.0
2017-Jun-22 01:30N 59°19' E 018°10'0 0.0
2017-Jun-22 01:00N 59°19' E 018°10'0 0.0
2017-Jun-22 00:30N 59°19' E 018°10'0 0.0
2017-Jun-22 00:00N 59°19' E 018°10'0 0.0
2017-Jun-21 23:30N 59°19' E 018°10'0 0.0
2017-Jun-21 23:00N 59°19' E 018°10'0 0.0
2017-Jun-21 22:30N 59°19' E 018°10'0 0.0
2017-Jun-21 22:00N 59°19' E 018°10'0 0.0
2017-Jun-21 21:30N 59°19' E 018°10'0 0.0
2017-Jun-21 21:00N 59°19' E 018°10'0 0.0
2017-Jun-21 20:30N 59°19' E 018°10'0 0.0
2017-Jun-21 20:01N 59°19' E 018°10'0 0.0
2017-Jun-21 19:30N 59°19' E 018°10'0 0.0
2017-Jun-21 19:00N 59°19' E 018°10'0 0.0
2017-Jun-21 18:30N 59°19' E 018°10'0 0.0
2017-Jun-21 18:00N 59°19' E 018°10'0 0.0
2017-Jun-21 17:30N 59°19' E 018°10'0 0.0
2017-Jun-21 17:00N 59°19' E 018°10'0 0.0
2017-Jun-21 16:30N 59°19' E 018°10'0 0.0
2017-Jun-21 16:00N 59°19' E 018°10'0 0.0
2017-Jun-21 15:30N 59°19' E 018°10'0 0.0
2017-Jun-21 15:00N 59°19' E 018°10'2 3.1
2017-Jun-21 14:30N 59°20' E 018°12'6 0.3
2017-Jun-20 18:02N 59°16' E 018°21'135.4
2017-Jun-20 18:00N 59°17' E 018°20'4 7.5
2017-Jun-20 17:30N 59°19' E 018°13'2 3.9
2017-Jun-20 17:01N 59°19' E 018°10'8 3.6
2017-Jun-20 14:40N 59°23' E 018°24'812.8
2017-Jun-20 14:00N 59°19' E 018°10'0 0.1
2017-Jun-20 13:30N 59°19' E 018°10'712.8
2017-Jun-20 12:58N 59°23' E 018°22'  

Dump ship's entire track history